createdAt,value
2023-03-12T00:01:16.294Z,99709.43
2023-03-12T00:03:43.137Z,99710.27
2023-03-12T00:06:11.143Z,99717.44
2023-03-12T00:08:38.182Z,99714.47
2023-03-12T00:11:16.062Z,99720.66
2023-03-12T00:13:43.276Z,99726.99
2023-03-12T00:16:13.524Z,99727.80
2023-03-12T00:18:41.098Z,99730.85
2023-03-12T00:21:08.670Z,99728.40
2023-03-12T00:23:36.288Z,99728.71
2023-03-12T00:26:11.372Z,99729.36
2023-03-12T00:28:39.542Z,99734.83
2023-03-12T00:31:17.962Z,99732.72
2023-03-12T00:33:44.971Z,99736.47
2023-03-12T00:36:12.218Z,99738.64
2023-03-12T00:38:38.714Z,99738.42
2023-03-12T00:41:05.276Z,99737.67
2023-03-12T00:43:31.904Z,99738.27
2023-03-12T00:45:58.540Z,99736.32
2023-03-12T00:48:25.033Z,99739.55
2023-03-12T00:50:51.655Z,99741.52
2023-03-12T00:53:18.185Z,99742.28
2023-03-12T00:55:44.729Z,99750.92
2023-03-12T00:58:11.290Z,99754.33
2023-03-12T01:00:37.999Z,99761.55
2023-03-12T01:03:04.557Z,99767.60
2023-03-12T01:05:31.563Z,99767.24
2023-03-12T01:07:58.625Z,99768.29
2023-03-12T01:10:25.142Z,99766.07
2023-03-12T01:12:51.619Z,99768.48
2023-03-12T01:15:18.208Z,99764.86
2023-03-12T01:17:44.779Z,99763.28
2023-03-12T01:20:11.705Z,99761.00
2023-03-12T01:22:38.529Z,99765.81
2023-03-12T01:25:05.391Z,99761.28
2023-03-12T01:27:32.080Z,99760.58
2023-03-12T01:29:58.544Z,99760.02
2023-03-12T01:32:25.200Z,99758.97
2023-03-12T01:34:51.816Z,99766.62
2023-03-12T01:37:18.346Z,99764.20
2023-03-12T01:39:44.842Z,99762.48
2023-03-12T01:42:11.862Z,99762.34
2023-03-12T01:45:02.457Z,99767.38
2023-03-12T01:47:30.277Z,99768.44
2023-03-12T01:49:56.909Z,99772.91
2023-03-12T01:52:36.325Z,99775.66
2023-03-12T01:55:05.222Z,99783.45
2023-03-12T01:57:39.719Z,99788.77
2023-03-12T02:00:15.582Z,99787.49
2023-03-12T02:02:44.294Z,99786.71
2023-03-12T02:05:24.324Z,99789.05
2023-03-12T02:07:50.992Z,99790.44
2023-03-12T02:10:17.833Z,99792.94
2023-03-12T02:12:44.665Z,99800.97
2023-03-12T02:15:11.597Z,99801.39
2023-03-12T02:17:38.754Z,99815.10
2023-03-12T02:20:07.996Z,99818.48
2023-03-12T02:22:36.635Z,99815.84
2023-03-12T02:25:35.248Z,99819.39
2023-03-12T02:28:05.066Z,99819.30
2023-03-12T02:30:32.098Z,99819.36
2023-03-12T02:33:01.532Z,99818.26
2023-03-12T02:35:28.063Z,99816.09
2023-03-12T02:37:56.152Z,99817.39
2023-03-12T02:40:22.593Z,99817.98
2023-03-12T02:42:49.313Z,99819.96
2023-03-12T02:45:16.059Z,99829.65
2023-03-12T02:47:42.545Z,99839.23
2023-03-12T02:50:09.666Z,99846.21
2023-03-12T02:52:36.315Z,99851.65
2023-03-12T02:55:02.978Z,99854.54
2023-03-12T02:57:29.516Z,99854.48
2023-03-12T02:59:56.018Z,99863.55
2023-03-12T03:02:22.530Z,99862.98
2023-03-12T03:04:48.979Z,99863.25
2023-03-12T03:07:15.721Z,99872.17
2023-03-12T03:09:42.221Z,99872.73
2023-03-12T03:12:08.799Z,99877.00
2023-03-12T03:14:35.280Z,99880.39
2023-03-12T03:17:01.771Z,99883.98
2023-03-12T03:19:28.285Z,99886.52
2023-03-12T03:21:54.750Z,99891.33
2023-03-12T03:24:21.269Z,99900.05
2023-03-12T03:26:47.758Z,99907.76
2023-03-12T03:29:14.331Z,99920.14
2023-03-12T03:31:40.802Z,99918.86
2023-03-12T03:34:07.322Z,99913.95
2023-03-12T03:36:34.074Z,99918.73
2023-03-12T03:39:00.535Z,99918.85
2023-03-12T03:41:27.015Z,99922.20
2023-03-12T03:43:57.034Z,99926.41
2023-03-12T03:46:23.509Z,99922.70
2023-03-12T03:48:50.116Z,99917.98
2023-03-12T03:51:17.114Z,99923.42
2023-03-12T03:53:43.573Z,99927.83
2023-03-12T03:56:12.354Z,99930.70
2023-03-12T03:58:38.912Z,99932.98
2023-03-12T04:01:06.006Z,99928.76
2023-03-12T04:03:33.167Z,99929.36
2023-03-12T04:06:02.526Z,99932.41
2023-03-12T04:08:29.363Z,99940.30
2023-03-12T04:10:56.208Z,99947.66
2023-03-12T04:13:22.699Z,99945.86
2023-03-12T04:15:52.179Z,99947.45
2023-03-12T04:18:19.664Z,99942.83
2023-03-12T04:20:46.191Z,99945.84
2023-03-12T04:23:12.635Z,99955.20
2023-03-12T04:25:39.436Z,99968.35
2023-03-12T04:28:06.253Z,99976.39
2023-03-12T04:30:33.495Z,99983.04
2023-03-12T04:33:00.205Z,99993.15
2023-03-12T04:35:26.697Z,100004.14
2023-03-12T04:37:53.179Z,100017.18
2023-03-12T04:40:19.773Z,100018.98
2023-03-12T04:42:46.297Z,100028.70
2023-03-12T04:45:12.787Z,100028.61
2023-03-12T04:47:39.296Z,100031.66
2023-03-12T04:50:06.666Z,100031.97
2023-03-12T04:52:33.148Z,100033.36
2023-03-12T04:54:59.683Z,100032.70
2023-03-12T04:57:26.645Z,100030.48
2023-03-12T04:59:53.200Z,100032.34
2023-03-12T05:02:19.731Z,100034.27
2023-03-12T05:04:46.256Z,100038.78
2023-03-12T05:07:12.752Z,100041.42
2023-03-12T05:09:39.271Z,100040.43
2023-03-12T05:12:06.147Z,100048.52
2023-03-12T05:14:32.610Z,100054.73
2023-03-12T05:16:59.102Z,100050.57
2023-03-12T05:19:25.578Z,100053.84
2023-03-12T05:21:52.046Z,100054.39
2023-03-12T05:24:18.553Z,100062.33
2023-03-12T05:26:45.042Z,100054.80
2023-03-12T05:29:11.516Z,100055.73
2023-03-12T05:31:38.063Z,100062.52
2023-03-12T05:34:05.063Z,100067.27
2023-03-12T05:36:31.872Z,100073.75
2023-03-12T05:38:58.383Z,100078.33
2023-03-12T05:41:30.013Z,100082.39
2023-03-12T05:43:56.843Z,100081.85
2023-03-12T05:46:25.425Z,100081.98
2023-03-12T05:48:52.490Z,100083.48
2023-03-12T05:51:19.352Z,100086.89
2023-03-12T05:53:46.553Z,100089.44
2023-03-12T05:56:15.365Z,100095.98
2023-03-12T05:58:42.345Z,100099.72
2023-03-12T06:01:21.785Z,100107.61
2023-03-12T06:03:48.356Z,100114.30
2023-03-12T06:06:15.503Z,100115.52
2023-03-12T06:08:42.780Z,100119.73
2023-03-12T06:11:09.817Z,100121.55
2023-03-12T06:13:37.113Z,100130.46
2023-03-12T06:16:11.084Z,100138.53
2023-03-12T06:18:38.075Z,100144.62
2023-03-12T06:21:18.323Z,100151.23
2023-03-12T06:23:45.580Z,100158.16
2023-03-12T06:26:12.841Z,100161.30
2023-03-12T06:28:39.872Z,100162.35
2023-03-12T06:31:07.071Z,100163.95
2023-03-12T06:33:34.107Z,100170.36
2023-03-12T06:36:03.366Z,100176.98
2023-03-12T06:38:30.380Z,100173.23
2023-03-12T06:41:09.053Z,100181.33
2023-03-12T06:43:37.415Z,100185.96
2023-03-12T06:46:05.756Z,100188.63
2023-03-12T06:48:34.235Z,100195.33
2023-03-12T06:51:00.718Z,100191.79
2023-03-12T06:53:27.239Z,100192.01
2023-03-12T06:55:53.700Z,100195.75
2023-03-12T06:58:20.227Z,100201.45
2023-03-12T07:00:46.839Z,100201.33
2023-03-12T07:03:13.817Z,100201.98
2023-03-12T07:05:43.353Z,100209.52
2023-03-12T07:08:09.902Z,100213.61
2023-03-12T07:10:36.557Z,100217.81
2023-03-12T07:13:03.075Z,100216.34
2023-03-12T07:15:29.640Z,100218.88
2023-03-12T07:18:00.245Z,100217.95
2023-03-12T07:20:26.797Z,100225.97
2023-03-12T07:22:53.307Z,100231.11
2023-03-12T07:25:19.889Z,100229.70
2023-03-12T07:27:46.396Z,100231.56
2023-03-12T07:30:13.202Z,100231.00
2023-03-12T07:32:39.726Z,100233.56
2023-03-12T07:35:06.715Z,100237.38
2023-03-12T07:37:33.222Z,100230.89
2023-03-12T07:39:59.764Z,100236.03
2023-03-12T07:42:26.404Z,100240.70
2023-03-12T07:44:52.914Z,100242.63
2023-03-12T07:47:24.020Z,100241.34
2023-03-12T07:49:52.087Z,100242.89
2023-03-12T07:52:18.754Z,100240.19
2023-03-12T07:54:45.637Z,100241.89
2023-03-12T07:57:12.390Z,100244.77
2023-03-12T07:59:38.988Z,100238.20
2023-03-12T08:02:05.586Z,100242.29
2023-03-12T08:04:32.216Z,100242.64
2023-03-12T08:06:59.183Z,100253.43
2023-03-12T08:09:25.894Z,100252.17
2023-03-12T08:11:52.449Z,100248.18
2023-03-12T08:14:19.002Z,100248.06
2023-03-12T08:16:45.585Z,100247.91
2023-03-12T08:19:12.114Z,100250.29
2023-03-12T08:21:38.573Z,100250.58
2023-03-12T08:24:05.194Z,100254.69
2023-03-12T08:26:31.767Z,100261.27
2023-03-12T08:28:58.262Z,100260.63
2023-03-12T08:31:24.834Z,100259.35
2023-03-12T08:33:51.327Z,100259.92
2023-03-12T08:36:17.919Z,100265.20
2023-03-12T08:38:44.471Z,100269.25
2023-03-12T08:41:10.959Z,100273.00
2023-03-12T08:43:37.443Z,100275.98
2023-03-12T08:46:04.213Z,100274.63
2023-03-12T08:48:32.183Z,100270.52
2023-03-12T08:51:00.564Z,100272.74
2023-03-12T08:53:27.589Z,100274.54
2023-03-12T08:55:55.054Z,100272.95
2023-03-12T08:58:22.886Z,100267.23
2023-03-12T09:00:49.331Z,100266.47
2023-03-12T09:03:15.899Z,100266.25
2023-03-12T09:05:43.083Z,100266.91
2023-03-12T09:08:10.760Z,100268.57
2023-03-12T09:10:38.362Z,100262.21
2023-03-12T09:13:06.760Z,100259.27
2023-03-12T09:15:33.880Z,100259.48
2023-03-12T09:18:00.383Z,100257.23
2023-03-12T09:20:26.931Z,100253.61
2023-03-12T09:22:53.443Z,100256.42
2023-03-12T09:25:19.994Z,100256.02
2023-03-12T09:27:47.579Z,100246.19
2023-03-12T09:30:20.673Z,100235.52
2023-03-12T09:32:47.376Z,100225.85
2023-03-12T09:35:15.650Z,100223.53
2023-03-12T09:37:42.537Z,100220.00
2023-03-12T09:40:16.580Z,100219.89
2023-03-12T09:42:48.759Z,100227.03
2023-03-12T09:45:31.415Z,100226.01
2023-03-12T09:48:01.711Z,100228.05
2023-03-12T09:50:37.036Z,100233.67
2023-03-12T09:53:29.709Z,100233.92
2023-03-12T09:55:58.423Z,100231.11
2023-03-12T09:58:27.708Z,100227.18
2023-03-12T10:01:31.010Z,100225.92
2023-03-12T10:04:16.041Z,100221.33
2023-03-12T10:06:50.187Z,100223.36
2023-03-12T10:09:54.372Z,100225.73
2023-03-12T10:12:27.080Z,100228.70
2023-03-12T10:15:22.243Z,100227.21
2023-03-12T10:18:10.302Z,100226.95
2023-03-12T10:20:42.626Z,100225.94
2023-03-12T10:23:20.686Z,100225.83
2023-03-12T10:26:08.459Z,100232.30
2023-03-12T10:28:41.041Z,100236.52
2023-03-12T10:31:18.758Z,100240.27
2023-03-12T10:33:49.902Z,100239.36
2023-03-12T10:36:19.918Z,100238.20
2023-03-12T10:38:47.233Z,100238.67
2023-03-12T10:41:21.236Z,100241.36
2023-03-12T10:43:47.887Z,100244.70
2023-03-12T10:46:14.374Z,100241.18
2023-03-12T10:48:42.887Z,100233.39
2023-03-12T10:51:12.490Z,100227.36
2023-03-12T10:53:43.674Z,100229.25
2023-03-12T10:56:23.397Z,100228.02
2023-03-12T10:58:52.485Z,100224.60
2023-03-12T11:01:25.231Z,100236.25
2023-03-12T11:03:53.029Z,100234.94
2023-03-12T11:06:27.176Z,100231.90
2023-03-12T11:09:17.095Z,100226.79
2023-03-12T11:11:46.456Z,100225.83
2023-03-12T11:14:30.281Z,100229.80
2023-03-12T11:16:57.269Z,100226.64
2023-03-12T11:19:32.244Z,100221.98
2023-03-12T11:22:10.412Z,100224.56
2023-03-12T11:24:55.391Z,100220.60
2023-03-12T11:27:42.629Z,100212.09
2023-03-12T11:30:16.415Z,100211.27
2023-03-12T11:32:48.560Z,100215.93
2023-03-12T11:35:18.224Z,100213.73
2023-03-12T11:38:18.945Z,100216.03
2023-03-12T11:41:04.947Z,100216.36
2023-03-12T11:43:56.314Z,100219.96
2023-03-12T11:47:05.108Z,100214.91
2023-03-12T11:49:43.674Z,100215.64
2023-03-12T11:52:12.881Z,100217.61
2023-03-12T11:55:07.251Z,100222.16
2023-03-12T11:58:06.420Z,100222.54
2023-03-12T12:00:52.437Z,100221.58
2023-03-12T12:03:28.066Z,100224.66
2023-03-12T12:06:17.237Z,100219.05
2023-03-12T12:09:01.265Z,100223.14
2023-03-12T12:11:37.213Z,100223.86
2023-03-12T12:14:15.940Z,100222.17
2023-03-12T12:17:13.465Z,100218.31
2023-03-12T12:19:51.268Z,100217.97
2023-03-12T12:22:43.948Z,100218.63
2023-03-12T12:25:51.501Z,100219.70
2023-03-12T12:28:38.535Z,100220.12
2023-03-12T12:31:31.198Z,100216.06
2023-03-12T12:34:12.007Z,100217.27
2023-03-12T12:36:38.554Z,100217.42
2023-03-12T12:39:23.926Z,100213.12
2023-03-12T12:41:58.233Z,100218.05
2023-03-12T12:44:34.838Z,100211.91
2023-03-12T12:47:05.826Z,100214.86
2023-03-12T12:49:51.885Z,100215.94
2023-03-12T12:52:20.679Z,100212.09
2023-03-12T12:55:01.058Z,100217.00
2023-03-12T12:57:33.419Z,100210.49
2023-03-12T13:00:31.151Z,100210.46
2023-03-12T13:02:58.164Z,100211.27
2023-03-12T13:05:36.952Z,100215.48
2023-03-12T13:08:05.548Z,100214.91
2023-03-12T13:10:35.143Z,100211.22
2023-03-12T13:13:23.723Z,100214.10
2023-03-12T13:15:50.609Z,100214.09
2023-03-12T13:18:25.689Z,100217.33
2023-03-12T13:20:52.124Z,100216.14
2023-03-12T13:23:30.735Z,100219.48
2023-03-12T13:26:06.125Z,100227.27
2023-03-12T13:29:06.110Z,100220.47
2023-03-12T13:31:38.097Z,100218.34
2023-03-12T13:34:19.839Z,100217.58
2023-03-12T13:36:47.380Z,100220.95
2023-03-12T13:39:16.960Z,100216.67
2023-03-12T13:41:47.749Z,100224.46
2023-03-12T13:44:23.608Z,100226.78
2023-03-12T13:47:02.510Z,100231.95
2023-03-12T13:49:40.841Z,100231.48
2023-03-12T13:52:16.773Z,100229.98
2023-03-12T13:54:47.390Z,100228.81
2023-03-12T13:57:38.824Z,100225.31
2023-03-12T14:00:15.473Z,100226.02
2023-03-12T14:03:03.822Z,100225.64
2023-03-12T14:05:50.910Z,100227.73
2023-03-12T14:08:42.211Z,100232.10
2023-03-12T14:11:27.504Z,100233.84
2023-03-12T14:14:14.114Z,100228.77
2023-03-12T14:16:46.013Z,100233.64
2023-03-12T14:19:14.462Z,100234.53
2023-03-12T14:21:44.568Z,100236.90
2023-03-12T14:24:25.996Z,100238.30
2023-03-12T14:26:55.018Z,100240.33
2023-03-12T14:29:45.130Z,100234.98
2023-03-12T14:32:19.475Z,100234.99
2023-03-12T14:34:51.128Z,100235.76
2023-03-12T14:37:20.033Z,100232.09
2023-03-12T14:39:51.523Z,100230.95
2023-03-12T14:42:22.409Z,100235.66
2023-03-12T14:44:59.721Z,100235.51
2023-03-12T14:47:26.369Z,100226.36
2023-03-12T14:49:55.870Z,100230.54
2023-03-12T14:52:25.278Z,100232.86
2023-03-12T14:55:00.663Z,100228.89
2023-03-12T14:57:27.545Z,100232.63
2023-03-12T14:59:59.284Z,100235.50
2023-03-12T15:02:27.458Z,100235.27
2023-03-12T15:05:00.141Z,100229.23
2023-03-12T15:07:33.640Z,100225.98
2023-03-12T15:10:02.315Z,100229.05
2023-03-12T15:12:34.070Z,100230.62
2023-03-12T15:15:08.505Z,100231.42
2023-03-12T15:17:35.833Z,100237.36
2023-03-12T15:20:05.116Z,100237.70
2023-03-12T15:22:32.493Z,100242.30
2023-03-12T15:25:20.695Z,100240.70
2023-03-12T15:27:47.232Z,100239.85
2023-03-12T15:30:25.495Z,100244.61
2023-03-12T15:33:24.229Z,100249.42
2023-03-12T15:36:15.703Z,100248.48
2023-03-12T15:39:03.940Z,100252.46
2023-03-12T15:41:46.400Z,100252.42
2023-03-12T15:44:28.380Z,100259.63
2023-03-12T15:47:02.979Z,100264.96
2023-03-12T15:49:35.880Z,100270.11
2023-03-12T15:52:20.793Z,100271.56
2023-03-12T15:55:26.024Z,100274.61
2023-03-12T15:57:55.489Z,100280.14
2023-03-12T16:00:41.094Z,100283.64
2023-03-12T16:03:16.363Z,100285.55
2023-03-12T16:05:43.259Z,100288.79
2023-03-12T16:08:27.760Z,100291.16
2023-03-12T16:10:54.387Z,100296.27
2023-03-12T16:13:25.474Z,100300.52
2023-03-12T16:15:52.071Z,100307.00
2023-03-12T16:18:20.469Z,100308.94
2023-03-12T16:20:49.044Z,100306.04
2023-03-12T16:23:16.310Z,100308.38
2023-03-12T16:25:49.028Z,100311.77
2023-03-12T16:28:18.793Z,100315.52
2023-03-12T16:30:45.289Z,100314.91
2023-03-12T16:33:14.394Z,100311.67
2023-03-12T16:35:41.299Z,100315.94
2023-03-12T16:38:08.303Z,100320.05
2023-03-12T16:40:38.069Z,100322.59
2023-03-12T16:43:07.060Z,100325.30
2023-03-12T16:45:35.839Z,100328.02
2023-03-12T16:48:05.769Z,100329.86
2023-03-12T16:50:32.469Z,100336.42
2023-03-12T16:52:59.769Z,100336.36
2023-03-12T16:55:30.795Z,100334.04
2023-03-12T16:58:01.447Z,100340.11
2023-03-12T17:00:30.852Z,100343.87
2023-03-12T17:02:58.617Z,100344.48
2023-03-12T17:05:28.392Z,100349.67
2023-03-12T17:07:58.304Z,100351.55
2023-03-12T17:10:26.210Z,100355.14
2023-03-12T17:12:53.838Z,100361.89
2023-03-12T17:15:27.357Z,100364.26
2023-03-12T17:17:54.145Z,100366.95
2023-03-12T17:20:22.198Z,100369.80
2023-03-12T17:22:48.705Z,100374.38
2023-03-12T17:25:27.235Z,100369.05
2023-03-12T17:27:54.483Z,100368.95
2023-03-12T17:30:21.022Z,100369.40
2023-03-12T17:32:47.914Z,100365.16
2023-03-12T17:35:14.521Z,100367.71
2023-03-12T17:37:41.013Z,100367.30
2023-03-12T17:40:08.360Z,100371.23
2023-03-12T17:42:38.944Z,100371.48
2023-03-12T17:45:07.813Z,100373.61
2023-03-12T17:47:35.321Z,100371.44
2023-03-12T17:50:02.340Z,100369.79
2023-03-12T17:52:28.841Z,100374.36
2023-03-12T17:54:55.328Z,100373.38
2023-03-12T17:57:47.435Z,100372.73
2023-03-12T18:00:14.270Z,100369.30
2023-03-12T18:02:41.760Z,100371.84
2023-03-12T18:05:10.497Z,100371.73
2023-03-12T18:07:37.559Z,100369.71
2023-03-12T18:10:05.423Z,100372.94
2023-03-12T18:12:32.946Z,100366.24
2023-03-12T18:14:59.638Z,100369.98
2023-03-12T18:17:26.168Z,100374.38
2023-03-12T18:19:52.792Z,100379.63
2023-03-12T18:22:19.320Z,100378.45
2023-03-12T18:24:46.894Z,100380.26
2023-03-12T18:27:13.421Z,100385.20
2023-03-12T18:29:39.894Z,100387.73
2023-03-12T18:32:06.833Z,100388.29
2023-03-12T18:34:33.610Z,100394.60
2023-03-12T18:37:00.105Z,100407.16
2023-03-12T18:39:26.590Z,100402.66
2023-03-12T18:41:55.221Z,100406.52
2023-03-12T18:44:21.658Z,100402.42
2023-03-12T18:46:48.240Z,100405.09
2023-03-12T18:49:14.814Z,100405.13
2023-03-12T18:51:41.284Z,100409.99
2023-03-12T18:54:07.832Z,100416.44
2023-03-12T18:56:34.676Z,100416.26
2023-03-12T18:59:01.165Z,100413.84
2023-03-12T19:01:27.713Z,100415.09
2023-03-12T19:03:54.368Z,100409.95
2023-03-12T19:06:20.919Z,100408.23
2023-03-12T19:08:47.411Z,100415.89
2023-03-12T19:11:15.918Z,100414.35
2023-03-12T19:13:42.866Z,100415.73
2023-03-12T19:16:13.112Z,100414.69
2023-03-12T19:18:39.680Z,100412.99
2023-03-12T19:21:08.993Z,100412.85
2023-03-12T19:23:35.511Z,100411.30
2023-03-12T19:26:02.832Z,100411.86
2023-03-12T19:28:29.332Z,100410.88
2023-03-12T19:31:03.353Z,100404.82
2023-03-12T19:33:30.085Z,100409.86
2023-03-12T19:35:57.859Z,100416.16
2023-03-12T19:38:24.382Z,100425.74
2023-03-12T19:40:55.174Z,100429.95
2023-03-12T19:43:22.658Z,100433.79
2023-03-12T19:45:49.476Z,100443.42
2023-03-12T19:48:16.543Z,100449.17
2023-03-12T19:50:43.273Z,100454.95
2023-03-12T19:53:09.793Z,100458.45
2023-03-12T19:55:36.316Z,100463.69
2023-03-12T19:58:03.490Z,100465.11
2023-03-12T20:00:30.436Z,100467.71
2023-03-12T20:02:57.110Z,100459.42
2023-03-12T20:05:23.749Z,100453.02
2023-03-12T20:07:50.264Z,100448.39
2023-03-12T20:10:16.829Z,100457.64
2023-03-12T20:12:43.326Z,100458.38
2023-03-12T20:15:09.928Z,100460.16
2023-03-12T20:17:36.406Z,100463.70
2023-03-12T20:20:03.996Z,100457.33
2023-03-12T20:22:30.455Z,100458.06
2023-03-12T20:24:56.917Z,100452.92
2023-03-12T20:27:23.396Z,100455.06
2023-03-12T20:29:49.876Z,100451.70
2023-03-12T20:32:16.885Z,100454.24
2023-03-12T20:34:43.399Z,100458.77
2023-03-12T20:37:10.026Z,100460.95
2023-03-12T20:39:36.557Z,100469.05
2023-03-12T20:42:03.190Z,100480.80
2023-03-12T20:44:29.701Z,100487.88
2023-03-12T20:46:56.260Z,100474.21
2023-03-12T20:49:22.978Z,100449.63
2023-03-12T20:51:49.492Z,100445.66
2023-03-12T20:54:16.914Z,100447.79
2023-03-12T20:56:43.393Z,100457.64
2023-03-12T20:59:11.558Z,100460.20
2023-03-12T21:01:38.230Z,100470.09
2023-03-12T21:04:04.920Z,100472.86
2023-03-12T21:06:31.405Z,100474.89
2023-03-12T21:08:58.745Z,100471.53
2023-03-12T21:11:25.484Z,100478.95
2023-03-12T21:13:52.346Z,100479.95
2023-03-12T21:16:18.876Z,100483.71
2023-03-12T21:18:45.669Z,100485.77
2023-03-12T21:21:12.451Z,100486.41
2023-03-12T21:23:39.164Z,100486.89
2023-03-12T21:26:09.374Z,100480.17
2023-03-12T21:28:36.482Z,100475.72
2023-03-12T21:31:14.939Z,100471.36
2023-03-12T21:33:42.501Z,100472.44
2023-03-12T21:36:11.585Z,100468.67
2023-03-12T21:38:39.497Z,100461.08
2023-03-12T21:41:06.813Z,100460.92
2023-03-12T21:43:33.323Z,100464.96
2023-03-12T21:46:07.678Z,100469.20
2023-03-12T21:48:34.908Z,100470.90
2023-03-12T21:51:03.314Z,100473.67
2023-03-12T21:53:29.797Z,100470.55
2023-03-12T21:55:58.408Z,100471.58
2023-03-12T21:58:25.124Z,100465.16
2023-03-12T22:00:52.026Z,100458.45
2023-03-12T22:03:18.539Z,100458.82
2023-03-12T22:05:50.809Z,100459.48
2023-03-12T22:08:17.331Z,100459.49
2023-03-12T22:10:45.210Z,100460.45
2023-03-12T22:13:11.949Z,100456.36
2023-03-12T22:15:38.552Z,100453.08
2023-03-12T22:18:05.260Z,100451.04
2023-03-12T22:20:33.313Z,100456.44
2023-03-12T22:23:00.698Z,100455.73
2023-03-12T22:25:27.207Z,100460.25
2023-03-12T22:27:53.720Z,100459.41
2023-03-12T22:30:20.247Z,100460.63
2023-03-12T22:32:46.808Z,100459.96
2023-03-12T22:35:13.287Z,100455.30
2023-03-12T22:37:39.752Z,100446.84
2023-03-12T22:40:07.032Z,100448.66
2023-03-12T22:42:33.808Z,100452.42
2023-03-12T22:45:00.292Z,100460.43
2023-03-12T22:47:26.772Z,100458.73
2023-03-12T22:49:53.228Z,100457.96
2023-03-12T22:52:19.696Z,100455.95
2023-03-12T22:54:46.156Z,100450.67
2023-03-12T22:57:12.634Z,100452.88
2023-03-12T22:59:39.124Z,100457.50
2023-03-12T23:02:05.699Z,100464.36
2023-03-12T23:04:32.277Z,100461.85
2023-03-12T23:07:12.902Z,100463.19
2023-03-12T23:09:40.164Z,100468.63
2023-03-12T23:12:07.016Z,100476.34
2023-03-12T23:14:34.010Z,100486.54
2023-03-12T23:17:00.459Z,100491.70
2023-03-12T23:19:32.078Z,100497.86
2023-03-12T23:21:58.446Z,100498.35
2023-03-12T23:24:25.325Z,100507.11
2023-03-12T23:26:51.769Z,100510.65
2023-03-12T23:29:18.266Z,100509.82
2023-03-12T23:31:44.834Z,100516.09
2023-03-12T23:34:11.366Z,100523.11
2023-03-12T23:36:37.922Z,100519.86
2023-03-12T23:39:04.422Z,100524.98
2023-03-12T23:41:30.946Z,100516.31
2023-03-12T23:43:58.891Z,100516.02
2023-03-12T23:46:26.365Z,100515.89
2023-03-12T23:48:53.846Z,100524.63
2023-03-12T23:51:23.162Z,100526.25
2023-03-12T23:53:52.071Z,100530.46
2023-03-12T23:56:21.214Z,100532.23
2023-03-12T23:58:49.192Z,100531.97
